createdAt,value
2018-09-19T00:00:28.965Z,19.4
2018-09-19T00:01:39.081Z,19.32
2018-09-19T00:02:49.173Z,19.38
2018-09-19T00:03:58.985Z,19.32
2018-09-19T00:05:08.803Z,19.32
2018-09-19T00:06:18.890Z,19.32
2018-09-19T00:07:28.244Z,19.28
2018-09-19T00:08:38.070Z,19.32
2018-09-19T00:09:48.216Z,19.24
2018-09-19T00:10:58.325Z,19.2
2018-09-19T00:12:08.271Z,19.23
2018-09-19T00:13:18.075Z,19.09
2018-09-19T00:14:27.890Z,19.1
2018-09-19T00:15:38.012Z,19.07
2018-09-19T00:16:48.097Z,19.12
2018-09-19T00:17:57.650Z,19
2018-09-19T00:19:07.482Z,18.97
2018-09-19T00:20:17.910Z,18.97
2018-09-19T00:21:28.368Z,19.06
2018-09-19T00:22:38.456Z,18.99
2018-09-19T00:23:48.528Z,18.99
2018-09-19T00:24:58.343Z,18.96
2018-09-19T00:26:09.668Z,18.93
2018-09-19T00:27:19.941Z,18.89
2018-09-19T00:28:29.741Z,18.87
2018-09-19T00:29:39.873Z,18.81
2018-09-19T00:30:49.991Z,18.89
2018-09-19T00:31:59.800Z,18.87
2018-09-19T00:33:09.925Z,18.89
2018-09-19T00:34:20.019Z,18.81
2018-09-19T00:35:30.107Z,18.87
2018-09-19T00:36:39.920Z,18.82
2018-09-19T00:37:49.777Z,18.75
2018-09-19T00:38:59.918Z,18.79
2018-09-19T00:40:10.001Z,18.78
2018-09-19T00:41:19.880Z,18.78
2018-09-19T00:42:29.978Z,18.72
2018-09-19T00:43:40.075Z,18.68
2018-09-19T00:44:50.182Z,18.74
2018-09-19T00:45:59.995Z,18.76
2018-09-19T00:47:10.097Z,18.75
2018-09-19T00:48:20.185Z,18.81
2018-09-19T00:49:30.010Z,18.86
2018-09-19T00:50:40.093Z,18.82
2018-09-19T00:51:49.928Z,18.86
2018-09-19T00:52:59.772Z,18.86
2018-09-19T00:54:09.861Z,18.78
2018-09-19T00:55:20.180Z,18.86
2018-09-19T00:56:30.284Z,18.89
2018-09-19T00:57:40.370Z,18.91
2018-09-19T00:58:50.461Z,18.93
2018-09-19T01:00:03.649Z,18.93
2018-09-19T01:01:13.718Z,18.93
2018-09-19T01:02:23.867Z,18.94
2018-09-19T01:03:33.996Z,18.97
2018-09-19T01:04:44.178Z,18.96
2018-09-19T01:05:53.802Z,18.96
2018-09-19T01:07:03.805Z,18.96
2018-09-19T01:08:13.960Z,18.87
2018-09-19T01:09:24.039Z,18.96
2018-09-19T01:10:33.936Z,18.93
2018-09-19T01:11:44.069Z,18.93
2018-09-19T01:12:54.183Z,18.97
2018-09-19T01:14:03.792Z,18.96
2018-09-19T01:15:13.898Z,18.93
2018-09-19T01:16:23.975Z,18.91
2018-09-19T01:17:33.816Z,18.87
2018-09-19T01:18:43.647Z,18.91
2018-09-19T01:19:53.698Z,18.87
2018-09-19T01:21:03.517Z,18.84
2018-09-19T01:22:13.630Z,18.79
2018-09-19T01:23:23.718Z,18.76
2018-09-19T01:24:33.515Z,18.79
2018-09-19T01:25:43.653Z,18.75
2018-09-19T01:26:53.735Z,18.78
2018-09-19T01:28:05.642Z,18.75
2018-09-19T01:29:15.723Z,18.71
2018-09-19T01:30:25.821Z,18.63
2018-09-19T01:31:35.371Z,18.66
2018-09-19T01:32:45.475Z,18.54
2018-09-19T01:33:55.560Z,18.57
2018-09-19T01:35:05.676Z,18.6
2018-09-19T01:36:15.763Z,18.61
2018-09-19T01:37:25.837Z,18.54
2018-09-19T01:38:35.928Z,18.5
2018-09-19T01:39:45.986Z,18.5
2018-09-19T01:40:56.064Z,18.42
2018-09-19T01:42:05.909Z,18.42
2018-09-19T01:43:16.010Z,18.44
2018-09-19T01:44:26.131Z,18.39
2018-09-19T01:45:36.234Z,18.45
2018-09-19T01:46:46.371Z,18.34
2018-09-19T01:47:56.448Z,18.41
2018-09-19T01:49:06.275Z,18.44
2018-09-19T01:50:16.384Z,18.42
2018-09-19T01:51:26.478Z,18.44
2018-09-19T01:52:36.584Z,18.39
2018-09-19T01:53:46.424Z,18.44
2018-09-19T01:54:56.535Z,18.45
2018-09-19T01:56:07.733Z,18.39
2018-09-19T01:57:17.837Z,18.45
2018-09-19T01:58:27.664Z,18.47
2018-09-19T01:59:37.498Z,18.47
2018-09-19T02:00:47.376Z,18.49
2018-09-19T02:01:57.492Z,18.45
2018-09-19T02:03:07.585Z,18.34
2018-09-19T02:04:17.140Z,18.39
2018-09-19T02:05:27.261Z,18.39
2018-09-19T02:06:37.339Z,18.34
2018-09-19T02:07:47.176Z,18.32
2018-09-19T02:08:57.269Z,18.39
2018-09-19T02:10:07.275Z,18.49
2018-09-19T02:11:17.366Z,18.39
2018-09-19T02:12:27.517Z,18.44
2018-09-19T02:13:37.602Z,18.44
2018-09-19T02:14:47.433Z,18.38
2018-09-19T02:15:57.513Z,18.41
2018-09-19T02:17:07.349Z,18.39
2018-09-19T02:18:17.481Z,18.32
2018-09-19T02:19:27.625Z,18.36
2018-09-19T02:20:37.722Z,18.26
2018-09-19T02:21:47.817Z,18.26
2018-09-19T02:22:57.945Z,18.31
2018-09-19T02:24:08.117Z,18.27
2018-09-19T02:25:18.202Z,18.29
2018-09-19T02:26:28.024Z,18.31
2018-09-19T02:27:37.852Z,18.29
2018-09-19T02:28:48.167Z,18.35
2018-09-19T02:29:58.039Z,18.31
2018-09-19T02:31:12.452Z,18.32
2018-09-19T02:32:22.023Z,18.29
2018-09-19T02:33:31.582Z,18.34
2018-09-19T02:34:41.694Z,18.32
2018-09-19T02:35:51.791Z,18.24
2018-09-19T02:37:02.167Z,18.21
2018-09-19T02:38:12.023Z,18.19
2018-09-19T02:39:22.104Z,18.17
2018-09-19T02:40:32.196Z,18.2
2018-09-19T02:41:42.291Z,18.24
2018-09-19T02:42:52.380Z,18.19
2018-09-19T02:44:02.490Z,18.17
2018-09-19T02:45:12.382Z,18.2
2018-09-19T02:46:22.223Z,18.17
2018-09-19T02:47:32.230Z,18.2
2018-09-19T02:48:42.055Z,18.31
2018-09-19T02:49:51.602Z,18.11
2018-09-19T02:51:01.676Z,18.23
2018-09-19T02:52:11.856Z,18.23
2018-09-19T02:53:21.688Z,18.1
2018-09-19T02:54:32.315Z,18.17
2018-09-19T02:55:42.407Z,18.13
2018-09-19T02:56:51.965Z,18.19
2018-09-19T02:58:03.213Z,18.16
2018-09-19T02:59:13.421Z,18.1
2018-09-19T03:00:23.496Z,18.2
2018-09-19T03:01:33.571Z,18.19
2018-09-19T03:02:43.416Z,18.23
2018-09-19T03:34:50.788Z,15.86
2018-09-19T03:36:00.884Z,15.71
2018-09-19T03:37:10.990Z,15.81
2018-09-19T03:38:21.073Z,15.78
2018-09-19T03:39:31.144Z,15.71
2018-09-19T03:40:40.731Z,15.84
2018-09-19T03:41:50.819Z,15.93
2018-09-19T03:43:00.642Z,16
2018-09-19T03:44:10.468Z,16.11
2018-09-19T03:45:20.563Z,16.16
2018-09-19T03:46:30.642Z,16.22
2018-09-19T03:47:40.742Z,16.37
2018-09-19T03:48:50.567Z,16.42
2018-09-19T03:50:03.388Z,16.45
2018-09-19T03:51:13.509Z,16.57
2018-09-19T03:52:23.692Z,16.63
2018-09-19T03:53:33.784Z,16.72
2018-09-19T03:54:43.902Z,16.77
2018-09-19T03:55:53.712Z,16.92
2018-09-19T03:57:03.804Z,17.03
2018-09-19T03:58:13.857Z,16.9
2018-09-19T03:59:24.306Z,17.09
2018-09-19T04:00:34.125Z,17.15
2018-09-19T04:01:43.959Z,17.13
2018-09-19T04:02:54.066Z,17.12
2018-09-19T04:04:04.203Z,17.17
2018-09-19T04:05:14.301Z,17.25
2018-09-19T04:06:24.461Z,17.32
2018-09-19T04:07:34.592Z,17.46
2018-09-19T04:08:44.429Z,17.43
2018-09-19T04:09:54.547Z,17.5
2018-09-19T04:11:04.637Z,17.54
2018-09-19T04:12:14.771Z,17.55
2018-09-19T04:13:24.893Z,17.52
2018-09-19T04:14:35.025Z,17.5
2018-09-19T04:15:44.881Z,17.49
2018-09-19T04:16:54.964Z,17.63
2018-09-19T04:18:05.124Z,17.63
2018-09-19T04:19:15.221Z,17.66
2018-09-19T04:20:25.047Z,17.66
2018-09-19T04:21:35.178Z,17.68
2018-09-19T04:22:45.281Z,17.65
2018-09-19T04:23:55.383Z,17.66
2018-09-19T04:25:05.205Z,17.68
2018-09-19T04:26:15.033Z,17.74
2018-09-19T04:27:25.180Z,17.65
2018-09-19T04:28:35.281Z,17.69
2018-09-19T04:29:45.356Z,17.66
2018-09-19T04:30:55.488Z,17.63
2018-09-19T04:32:07.988Z,17.74
2018-09-19T04:33:18.256Z,17.71
2018-09-19T04:34:28.330Z,17.66
2018-09-19T04:35:38.415Z,17.68
2018-09-19T04:36:48.558Z,17.63
2018-09-19T04:37:58.654Z,17.63
2018-09-19T04:39:10.699Z,17.71
2018-09-19T04:40:20.543Z,17.79
2018-09-19T04:41:30.641Z,17.79
2018-09-19T04:42:40.468Z,17.77
2018-09-19T04:43:50.288Z,17.79
2018-09-19T04:45:00.547Z,17.77
2018-09-19T04:46:10.896Z,17.83
2018-09-19T04:47:21.000Z,17.87
2018-09-19T04:48:30.825Z,17.9
2018-09-19T04:49:40.951Z,17.86
2018-09-19T04:50:51.036Z,17.92
2018-09-19T04:52:01.142Z,17.98
2018-09-19T04:53:10.979Z,18.03
2018-09-19T04:54:21.071Z,18.1
2018-09-19T04:55:31.209Z,18.08
2018-09-19T04:56:41.366Z,18.19
2018-09-19T04:57:51.479Z,18.21
2018-09-19T04:59:01.307Z,18.2
2018-09-19T05:00:11.399Z,18.29
2018-09-19T05:01:21.495Z,18.17
2018-09-19T05:02:30.795Z,18.31
2018-09-19T05:03:40.898Z,18.24
2018-09-19T05:04:50.996Z,18.31
2018-09-19T05:06:01.430Z,18.36
2018-09-19T05:07:11.363Z,18.36
2018-09-19T05:08:21.073Z,18.49
2018-09-19T05:09:31.204Z,18.44
2018-09-19T05:10:41.311Z,18.5
2018-09-19T05:11:51.412Z,18.51
2018-09-19T05:13:01.494Z,18.53
2018-09-19T05:14:11.678Z,18.6
2018-09-19T05:15:21.498Z,18.61
2018-09-19T05:16:31.317Z,18.68
2018-09-19T05:17:41.418Z,18.72
2018-09-19T05:18:51.537Z,18.87
2018-09-19T05:20:01.662Z,18.82
2018-09-19T05:21:11.768Z,18.96
2018-09-19T05:22:21.858Z,19.1
2018-09-19T05:23:31.949Z,19.16
2018-09-19T05:24:42.073Z,19.28
2018-09-19T05:25:52.178Z,19.43
2018-09-19T05:27:02.251Z,19.55
2018-09-19T05:28:12.356Z,19.55
2018-09-19T05:29:22.439Z,19.6
2018-09-19T05:30:32.310Z,19.72
2018-09-19T05:31:42.810Z,19.74
2018-09-19T05:32:53.319Z,19.79
2018-09-19T05:34:03.655Z,19.97
2018-09-19T05:35:13.755Z,19.95
2018-09-19T05:36:23.838Z,19.95
2018-09-19T05:37:34.001Z,20.01
2018-09-19T05:38:44.076Z,20.04
2018-09-19T05:39:53.894Z,19.97
2018-09-19T05:41:03.975Z,20.04
2018-09-19T05:42:14.057Z,20.07
2018-09-19T05:43:24.149Z,20.07
2018-09-19T05:44:34.261Z,20.15
2018-09-19T05:45:44.075Z,20.07
2018-09-19T05:46:53.630Z,20.08
2018-09-19T05:48:05.463Z,20.23
2018-09-19T05:49:15.543Z,20.32
2018-09-19T05:50:25.372Z,20.37
2018-09-19T05:51:35.431Z,20.48
2018-09-19T05:52:44.977Z,20.48
2018-09-19T05:53:55.095Z,20.54
2018-09-19T05:55:05.224Z,20.56
2018-09-19T05:56:15.320Z,20.6
2018-09-19T05:57:25.412Z,20.61
2018-09-19T05:58:35.495Z,20.66
2018-09-19T05:59:45.327Z,20.63
2018-09-19T06:00:55.420Z,20.6
2018-09-19T06:02:05.709Z,20.61
2018-09-19T06:03:15.776Z,20.6
2018-09-19T06:04:25.867Z,20.57
2018-09-19T06:05:35.675Z,20.64
2018-09-19T06:06:45.794Z,20.71
2018-09-19T06:07:55.907Z,20.76
2018-09-19T06:09:08.380Z,20.75
2018-09-19T06:10:18.439Z,20.83
2018-09-19T06:11:27.984Z,20.78
2018-09-19T06:12:38.083Z,20.81
2018-09-19T06:13:47.939Z,20.9
2018-09-19T06:14:58.072Z,20.91
2018-09-19T06:16:09.069Z,20.9
2018-09-19T06:17:19.239Z,21.13
2018-09-19T06:18:29.334Z,21.25
2018-09-19T06:19:39.408Z,21.37
2018-09-19T06:20:49.490Z,21.45
2018-09-19T06:21:59.569Z,21.53
2018-09-19T06:23:09.646Z,21.64
2018-09-19T06:24:19.739Z,21.71
2018-09-19T06:25:29.861Z,21.74
2018-09-19T06:26:39.673Z,21.86
2018-09-19T06:27:49.792Z,21.99
2018-09-19T06:28:59.636Z,22.02
2018-09-19T06:30:10.735Z,22.16
2018-09-19T06:31:20.830Z,22.3
2018-09-19T06:32:30.929Z,22.27
2018-09-19T06:33:41.127Z,22.38
2018-09-19T06:34:51.288Z,22.29
2018-09-19T06:36:01.377Z,22.42
2018-09-19T06:37:11.793Z,22.38
2018-09-19T06:38:21.685Z,22.52
2018-09-19T06:39:31.628Z,22.51
2018-09-19T06:40:42.149Z,22.63
2018-09-19T06:41:52.836Z,22.69
2018-09-19T06:43:03.042Z,22.73
2018-09-19T06:44:13.116Z,22.78
2018-09-19T06:45:23.237Z,22.86
2018-09-19T06:46:33.368Z,22.99
2018-09-19T06:47:43.494Z,22.92
2018-09-19T06:48:53.354Z,22.99
2018-09-19T06:50:03.448Z,23.01
2018-09-19T06:51:13.578Z,23
2018-09-19T06:52:24.069Z,23.18
2018-09-19T06:53:34.730Z,23.12
2018-09-19T06:54:44.840Z,23.25
2018-09-19T06:55:54.963Z,23.4
2018-09-19T06:57:05.288Z,23.57
2018-09-19T06:58:15.169Z,23.63
2018-09-19T06:59:25.298Z,23.77
2018-09-19T07:00:35.479Z,24.02
2018-09-19T07:01:45.551Z,24.18
2018-09-19T07:02:55.392Z,24.32
2018-09-19T07:04:05.482Z,24.56
2018-09-19T07:05:15.551Z,24.64
2018-09-19T07:06:25.652Z,24.69
2018-09-19T07:07:35.724Z,24.8
2018-09-19T07:08:45.568Z,24.86
2018-09-19T07:09:55.655Z,24.85
2018-09-19T07:11:08.863Z,25.01
2018-09-19T07:12:18.959Z,25
2018-09-19T07:13:28.772Z,24.97
2018-09-19T07:14:38.866Z,24.97
2018-09-19T07:15:48.694Z,25.2
2018-09-19T07:16:58.824Z,25.19
2018-09-19T07:18:09.611Z,25.3
2018-09-19T07:19:19.433Z,25.49
2018-09-19T07:20:29.532Z,25.63
2018-09-19T07:21:39.643Z,25.89
2018-09-19T07:22:49.747Z,26.01
2018-09-19T07:24:00.036Z,26.16
2018-09-19T07:25:10.179Z,26.44
2018-09-19T07:26:20.638Z,26.39
2018-09-19T07:27:30.751Z,26.44
2018-09-19T07:28:40.831Z,26.56
2018-09-19T07:29:50.941Z,26.41
2018-09-19T07:31:01.261Z,26.44
2018-09-19T07:32:11.361Z,26.3
2018-09-19T07:33:20.944Z,26.19
2018-09-19T07:34:31.077Z,26.15
2018-09-19T07:35:40.922Z,25.99
2018-09-19T07:36:51.041Z,25.97
2018-09-19T07:38:01.159Z,25.93
2018-09-19T07:39:11.247Z,25.94
2018-09-19T07:40:21.313Z,25.93
2018-09-19T07:41:31.592Z,25.97
2018-09-19T07:42:41.698Z,26
2018-09-19T07:43:51.506Z,26.09
2018-09-19T07:45:01.587Z,26.11
2018-09-19T07:46:11.687Z,26.11
2018-09-19T07:47:21.764Z,26.03
2018-09-19T07:48:31.858Z,26.01
2018-09-19T07:49:41.942Z,25.99
2018-09-19T07:50:51.764Z,25.93
2018-09-19T07:52:01.855Z,25.93
2018-09-19T07:53:11.967Z,25.97
2018-09-19T07:54:22.128Z,26.07
2018-09-19T07:55:32.284Z,26.17
2018-09-19T07:56:42.381Z,26.3
2018-09-19T07:57:52.520Z,26.26
2018-09-19T07:59:02.984Z,26.44
2018-09-19T08:00:13.078Z,26.53
2018-09-19T08:01:23.293Z,26.59
2018-09-19T08:02:33.415Z,26.75
2018-09-19T08:03:43.568Z,27
2018-09-19T08:04:53.402Z,27.08
2018-09-19T08:06:03.511Z,27.26
2018-09-19T08:07:13.397Z,27.46
2018-09-19T08:08:23.216Z,27.68
2018-09-19T08:09:33.303Z,27.86
2018-09-19T08:10:43.426Z,27.98
2018-09-19T08:11:53.544Z,28.18
2018-09-19T08:13:03.689Z,28.26
2018-09-19T08:14:13.529Z,28.43
2018-09-19T08:15:23.679Z,28.64
2018-09-19T08:16:33.773Z,28.68
2018-09-19T08:17:43.884Z,28.72
2018-09-19T08:18:53.700Z,28.65
2018-09-19T08:20:03.807Z,28.7
2018-09-19T08:21:13.911Z,28.61
2018-09-19T08:22:24.048Z,28.57
2018-09-19T08:23:34.264Z,28.51
2018-09-19T08:24:44.102Z,28.42
2018-09-19T08:25:53.966Z,28.48
2018-09-19T08:27:03.799Z,28.36
2018-09-19T08:28:13.930Z,28.21
2018-09-19T08:29:24.042Z,28.24
2018-09-19T08:30:34.159Z,28.23
2018-09-19T08:31:44.256Z,28.24
2018-09-19T08:32:54.350Z,28.28
2018-09-19T08:34:04.204Z,28.26
2018-09-19T08:35:14.298Z,28.26
2018-09-19T08:36:24.380Z,28.31
2018-09-19T08:37:34.465Z,28.45
2018-09-19T08:38:44.645Z,28.43
2018-09-19T08:39:54.768Z,28.45
2018-09-19T08:41:04.610Z,28.49
2018-09-19T08:42:14.830Z,28.58
2018-09-19T08:43:24.941Z,28.7
2018-09-19T08:44:35.020Z,28.73
2018-09-19T08:45:44.854Z,28.94
2018-09-19T08:46:54.451Z,29.05
2018-09-19T08:48:04.563Z,29.1
2018-09-19T08:49:14.436Z,29.26
2018-09-19T08:50:24.613Z,29.36
2018-09-19T08:51:34.650Z,29.45
2018-09-19T08:52:44.751Z,29.52
2018-09-19T08:53:54.617Z,29.42
2018-09-19T08:55:04.737Z,29.21
2018-09-19T08:56:14.877Z,29.14
2018-09-19T08:57:24.681Z,28.92
2018-09-19T08:58:34.783Z,28.88
2018-09-19T08:59:44.889Z,28.88
2018-09-19T09:00:54.995Z,28.85
2018-09-19T09:02:04.845Z,29.02
2018-09-19T09:03:14.956Z,28.88
2018-09-19T09:04:24.781Z,28.94
2018-09-19T09:05:34.927Z,28.95
2018-09-19T09:06:45.055Z,28.91
2018-09-19T09:07:54.993Z,29.05
2018-09-19T09:09:05.132Z,29.11
2018-09-19T09:10:14.952Z,29.08
2018-09-19T09:11:25.224Z,29.21
2018-09-19T09:12:35.541Z,29.3
2018-09-19T09:13:45.313Z,29.48
2018-09-19T09:14:55.444Z,29.45
2018-09-19T09:16:05.881Z,29.47
2018-09-19T09:17:15.983Z,29.4
2018-09-19T09:18:26.080Z,29.48
2018-09-19T09:19:36.214Z,29.6
2018-09-19T09:20:46.092Z,29.7
2018-09-19T09:21:55.924Z,29.85
2018-09-19T09:23:06.245Z,30.03
2018-09-19T09:24:16.336Z,30.06
2018-09-19T09:25:26.510Z,30.13
2018-09-19T09:26:36.631Z,30
2018-09-19T09:27:46.493Z,30.04
2018-09-19T09:28:56.352Z,30.03
2018-09-19T09:30:09.881Z,29.79
2018-09-19T09:31:20.231Z,29.76
2018-09-19T09:32:30.338Z,29.81
2018-09-19T09:33:40.440Z,29.91
2018-09-19T09:34:50.626Z,29.97
2018-09-19T09:36:00.356Z,30.14
2018-09-19T09:37:10.536Z,30.13
2018-09-19T09:38:20.650Z,30.18
2018-09-19T09:39:30.204Z,30.16
2018-09-19T09:40:40.574Z,30.18
2018-09-19T09:41:50.723Z,30.28
2018-09-19T09:43:00.873Z,30.29
2018-09-19T09:44:10.459Z,30.31
2018-09-19T09:45:20.568Z,30.35
2018-09-19T09:46:30.702Z,30.48
2018-09-19T09:47:40.286Z,30.47
2018-09-19T09:48:50.126Z,30.49
2018-09-19T09:50:00.347Z,30.51
2018-09-19T09:51:10.453Z,30.44
2018-09-19T09:52:20.562Z,30.37
2018-09-19T09:54:40.827Z,30.28
2018-09-19T09:55:50.915Z,30.13
2018-09-19T09:57:01.449Z,30.04
2018-09-19T09:58:11.637Z,29.89
2018-09-19T09:59:21.584Z,29.85
2018-09-19T10:00:31.676Z,29.91
2018-09-19T10:01:41.761Z,29.89
2018-09-19T10:02:51.853Z,29.95
2018-09-19T10:04:01.933Z,30
2018-09-19T10:05:11.760Z,30
2018-09-19T10:06:21.910Z,30.02
2018-09-19T10:07:31.770Z,30.11
2018-09-19T10:08:41.663Z,30.18
2018-09-19T10:09:51.484Z,30.22
2018-09-19T10:11:01.582Z,30.18
2018-09-19T10:12:11.414Z,30.22
2018-09-19T10:13:20.728Z,30.28
2018-09-19T10:14:30.869Z,30.18
2018-09-19T10:15:40.978Z,30.26
2018-09-19T10:16:51.075Z,30.47
2018-09-19T10:18:01.213Z,30.57
2018-09-19T10:19:11.312Z,30.71
2018-09-19T10:20:21.476Z,30.82
2018-09-19T10:21:31.295Z,30.86
2018-09-19T10:22:41.389Z,31
2018-09-19T10:23:51.212Z,31.03
2018-09-19T10:25:01.943Z,31.19
2018-09-19T10:26:12.086Z,31.36
2018-09-19T10:27:21.915Z,31.55
2018-09-19T10:28:31.999Z,31.71
2018-09-19T10:29:42.045Z,31.98
2018-09-19T10:30:52.326Z,32.24
2018-09-19T10:32:02.477Z,32.32
2018-09-19T10:33:12.553Z,32.39
2018-09-19T10:34:22.633Z,32.53
2018-09-19T10:35:32.615Z,32.62
2018-09-19T10:36:42.917Z,32.74
2018-09-19T10:37:53.033Z,32.81
2018-09-19T10:39:03.156Z,32.89
2018-09-19T10:40:13.323Z,32.68
2018-09-19T10:41:23.454Z,32.61
2018-09-19T10:42:33.563Z,32.43
2018-09-19T10:43:43.680Z,32.34
2018-09-19T10:44:53.906Z,32.15
2018-09-19T10:46:03.759Z,32.42
2018-09-19T10:47:13.590Z,32.62
2018-09-19T10:48:23.700Z,32.9
2018-09-19T10:49:34.119Z,33.17
2018-09-19T10:50:44.075Z,33.23
2018-09-19T10:51:53.909Z,33.12
2018-09-19T10:53:04.026Z,33.05
2018-09-19T10:54:14.132Z,32.86
2018-09-19T10:55:24.281Z,33.06
2018-09-19T10:56:34.101Z,33.05
2018-09-19T10:57:44.215Z,33.05
2018-09-19T10:58:54.048Z,33.18
2018-09-19T11:00:03.864Z,33.32
2018-09-19T11:01:13.709Z,33.43
2018-09-19T11:02:23.794Z,33.52
2018-09-19T11:03:33.649Z,33.59
2018-09-19T11:04:43.743Z,33.58
2018-09-19T11:05:53.605Z,33.63
2018-09-19T11:07:03.702Z,33.74
2018-09-19T11:08:13.849Z,33.9
2018-09-19T11:09:23.717Z,33.65
2018-09-19T11:10:33.575Z,33.5
2018-09-19T11:11:43.437Z,33.4
2018-09-19T11:12:53.593Z,33.43
2018-09-19T11:14:04.883Z,33.69
2018-09-19T11:15:14.723Z,33.95
2018-09-19T11:16:24.833Z,34.03
2018-09-19T11:17:34.665Z,34.18
2018-09-19T11:18:44.856Z,34.17
2018-09-19T11:19:54.976Z,33.87
2018-09-19T11:21:05.144Z,33.74
2018-09-19T11:22:15.231Z,33.52
2018-09-19T11:23:25.360Z,33.39
2018-09-19T11:24:35.450Z,33.47
2018-09-19T11:25:45.307Z,33.34
2018-09-19T11:26:55.459Z,33.18
2018-09-19T11:28:05.363Z,33.41
2018-09-19T11:29:15.503Z,33.44
2018-09-19T11:30:25.599Z,33.58
2018-09-19T11:31:35.695Z,33.23
2018-09-19T11:32:45.306Z,33.18
2018-09-19T11:33:55.412Z,33.2
2018-09-19T11:35:05.391Z,33.34
2018-09-19T11:36:15.546Z,33.16
2018-09-19T11:37:25.388Z,33.18
2018-09-19T11:38:35.426Z,33.32
2018-09-19T11:39:45.273Z,33.32
2018-09-19T11:40:55.389Z,33.43
2018-09-19T11:42:06.239Z,33.32
2018-09-19T11:43:16.386Z,33.24
2018-09-19T11:44:26.324Z,33.17
2018-09-19T11:45:36.416Z,33.18
2018-09-19T11:46:46.494Z,33.23
2018-09-19T11:47:56.575Z,33.09
2018-09-19T11:49:08.322Z,33.02
2018-09-19T11:50:18.468Z,32.61
2018-09-19T11:51:28.561Z,32.37
2018-09-19T11:52:38.656Z,31.98
2018-09-19T11:53:48.530Z,31.82
2018-09-19T11:54:58.629Z,31.71
2018-09-19T11:56:08.745Z,31.49
2018-09-19T11:57:18.895Z,31.43
2018-09-19T11:58:29.002Z,31.41
2018-09-19T11:59:39.184Z,31.44
2018-09-19T12:00:49.081Z,31.5
2018-09-19T12:01:59.373Z,31.45
2018-09-19T12:03:09.682Z,31.47
2018-09-19T12:04:19.759Z,31.56
2018-09-19T12:05:29.369Z,31.8
2018-09-19T12:06:39.467Z,31.94
2018-09-19T12:07:49.052Z,32.15
2018-09-19T12:08:59.206Z,32.3
2018-09-19T12:10:09.723Z,32.38
2018-09-19T12:11:19.282Z,32.5
2018-09-19T12:12:29.140Z,32.71
2018-09-19T12:13:39.234Z,32.89
2018-09-19T12:14:49.316Z,33.08
2018-09-19T12:15:58.917Z,33.21
2018-09-19T12:17:10.463Z,33.26
2018-09-19T12:18:20.282Z,33.34
2018-09-19T12:19:30.618Z,33.31
2018-09-19T12:20:40.542Z,33.18
2018-09-19T12:21:50.668Z,33.21
2018-09-19T12:23:00.745Z,33.18
2018-09-19T12:24:10.580Z,33.24
2018-09-19T12:25:20.699Z,33.31
2018-09-19T12:26:30.930Z,33.24
2018-09-19T12:27:40.872Z,33.21
2018-09-19T12:28:51.002Z,33.28
2018-09-19T12:30:00.836Z,33.11
2018-09-19T12:31:10.678Z,32.75
2018-09-19T12:32:20.500Z,32.47
2018-09-19T12:33:30.728Z,32.35
2018-09-19T12:34:40.867Z,32.15
2018-09-19T12:35:51.005Z,32.25
2018-09-19T12:37:01.123Z,32.08
2018-09-19T12:38:11.203Z,31.8
2018-09-19T12:39:21.301Z,31.72
2018-09-19T12:40:31.540Z,31.58
2018-09-19T12:41:41.628Z,31.5
2018-09-19T12:42:51.721Z,31.43
2018-09-19T12:44:01.817Z,31.45
2018-09-19T12:45:12.006Z,31.5
2018-09-19T12:46:21.867Z,31.74
2018-09-19T12:47:31.966Z,31.88
2018-09-19T12:48:41.786Z,32.09
2018-09-19T12:49:51.352Z,32.28
2018-09-19T12:51:01.189Z,32.34
2018-09-19T12:52:11.299Z,32.49
2018-09-19T12:53:20.963Z,32.64
2018-09-19T12:54:31.237Z,32.56
2018-09-19T12:55:41.351Z,32.61
2018-09-19T12:56:51.185Z,32.56
2018-09-19T12:58:01.876Z,32.53
2018-09-19T12:59:11.965Z,32.35
2018-09-19T13:00:21.594Z,32.27
2018-09-19T13:01:31.726Z,32.24
2018-09-19T13:02:41.875Z,32.24
2018-09-19T13:03:52.029Z,32.52
2018-09-19T13:05:02.120Z,32.71
2018-09-19T13:06:11.747Z,32.81
2018-09-19T13:07:21.840Z,32.93
2018-09-19T13:08:31.980Z,33.21
2018-09-19T13:09:42.167Z,33.31
2018-09-19T13:10:52.272Z,33.37
2018-09-19T13:12:02.458Z,33.4
2018-09-19T13:13:12.568Z,33.46
2018-09-19T13:14:22.666Z,33.12
2018-09-19T13:15:32.511Z,33.06
2018-09-19T13:16:42.607Z,32.89
2018-09-19T13:17:52.766Z,32.64
2018-09-19T13:19:02.690Z,32.61
2018-09-19T13:20:12.532Z,32.71
2018-09-19T13:21:22.399Z,32.53
2018-09-19T13:22:32.225Z,32.38
2018-09-19T13:23:42.374Z,32.5
2018-09-19T13:24:52.473Z,32.37
2018-09-19T13:26:02.566Z,32.27
2018-09-19T13:27:12.675Z,32.16
2018-09-19T13:28:22.864Z,32.09
2018-09-19T13:29:32.854Z,32.01
2018-09-19T13:30:42.959Z,31.95
2018-09-19T13:31:53.049Z,32.13
2018-09-19T13:33:03.153Z,32.15
2018-09-19T13:34:13.273Z,31.95
2018-09-19T13:35:23.082Z,31.81
2018-09-19T13:36:32.659Z,31.65
2018-09-19T13:37:42.734Z,31.49
2018-09-19T13:38:52.578Z,31.43
2018-09-19T13:40:05.730Z,31.56
2018-09-19T13:41:15.878Z,31.55
2018-09-19T13:42:25.694Z,31.44
2018-09-19T13:43:35.803Z,31.44
2018-09-19T13:44:45.716Z,31.23
2018-09-19T13:45:55.906Z,31.28
2018-09-19T13:47:07.775Z,31.12
2018-09-19T13:48:17.879Z,31.1
2018-09-19T13:49:28.057Z,31.04
2018-09-19T13:50:37.881Z,31.13
2018-09-19T13:51:47.976Z,31.06
2018-09-19T13:52:58.122Z,31.08
2018-09-19T13:54:08.214Z,31
2018-09-19T13:55:17.816Z,31.01
2018-09-19T13:56:27.913Z,30.94
2018-09-19T13:57:38.009Z,31
2018-09-19T13:58:48.052Z,31.01
2018-09-19T13:59:58.256Z,31.34
2018-09-19T14:01:10.831Z,31.43
2018-09-19T14:02:20.934Z,31.56
2018-09-19T14:03:31.052Z,31.7
2018-09-19T14:04:41.231Z,31.72
2018-09-19T14:05:51.123Z,31.56
2018-09-19T14:07:01.213Z,31.58
2018-09-19T14:08:11.314Z,31.58
2018-09-19T14:09:21.440Z,31.49
2018-09-19T14:10:31.450Z,31.47
2018-09-19T14:11:41.687Z,31.45
2018-09-19T14:12:52.016Z,31.38
2018-09-19T14:14:02.118Z,31.28
2018-09-19T14:15:12.019Z,31.28
2018-09-19T14:16:22.140Z,31.25
2018-09-19T14:17:32.248Z,31.26
2018-09-19T14:18:42.340Z,31.16
2018-09-19T14:19:52.446Z,31.12
2018-09-19T14:21:02.601Z,31.07
2018-09-19T14:22:12.754Z,30.99
2018-09-19T14:23:22.850Z,31
2018-09-19T14:24:32.941Z,30.96
2018-09-19T14:25:43.044Z,30.89
2018-09-19T14:26:53.142Z,30.81
2018-09-19T14:28:06.052Z,30.77
2018-09-19T14:29:15.907Z,30.77
2018-09-19T14:30:25.997Z,30.75
2018-09-19T14:31:36.087Z,30.69
2018-09-19T14:32:46.183Z,30.78
2018-09-19T14:33:56.080Z,30.75
2018-09-19T14:35:06.187Z,30.77
2018-09-19T14:36:15.791Z,30.79
2018-09-19T14:37:25.914Z,30.85
2018-09-19T14:38:36.027Z,30.93
2018-09-19T14:39:46.191Z,30.84
2018-09-19T14:40:56.324Z,30.86
2018-09-19T14:42:06.558Z,30.89
2018-09-19T14:43:16.410Z,30.89
2018-09-19T14:44:26.527Z,30.99
2018-09-19T14:45:36.718Z,30.84
2018-09-19T14:46:46.916Z,30.89
2018-09-19T14:47:56.760Z,30.93
2018-09-19T14:49:06.882Z,30.96
2018-09-19T14:50:16.720Z,30.89
2018-09-19T14:51:26.855Z,30.91
2018-09-19T14:52:36.996Z,31
2018-09-19T14:53:47.075Z,30.97
2018-09-19T14:54:57.218Z,30.93
2018-09-19T14:56:07.314Z,30.93
2018-09-19T14:57:17.395Z,30.96
2018-09-19T14:58:26.975Z,30.84
2018-09-19T14:59:37.214Z,30.81
2018-09-19T15:00:47.057Z,30.82
2018-09-19T15:01:57.172Z,30.82
2018-09-19T15:03:07.290Z,30.81
2018-09-19T15:04:17.417Z,30.78
2018-09-19T15:05:27.567Z,30.79
2018-09-19T15:06:37.654Z,30.78
2018-09-19T15:07:47.779Z,30.75
2018-09-19T15:08:57.436Z,30.73
2018-09-19T15:10:07.279Z,30.73
2018-09-19T15:11:17.015Z,30.71
2018-09-19T15:12:27.153Z,30.73
2018-09-19T15:13:37.238Z,30.73
2018-09-19T15:14:47.438Z,30.73
2018-09-19T15:15:57.544Z,30.69
2018-09-19T15:17:08.135Z,30.69
2018-09-19T15:18:18.369Z,30.62
2018-09-19T15:19:28.183Z,30.71
2018-09-19T15:20:38.024Z,30.79
2018-09-19T15:21:48.118Z,30.73
2018-09-19T15:22:58.220Z,30.79
2018-09-19T15:24:10.745Z,30.89
2018-09-19T15:25:20.940Z,30.97
2018-09-19T15:26:30.644Z,31.03
2018-09-19T15:27:40.760Z,31.07
2018-09-19T15:28:50.966Z,31.06
2018-09-19T15:30:03.261Z,31.1
2018-09-19T15:31:13.359Z,31.08
2018-09-19T15:32:23.449Z,31.06
2018-09-19T15:33:33.084Z,31.12
2018-09-19T15:34:43.182Z,30.99
2018-09-19T15:35:53.018Z,31.01
2018-09-19T15:37:03.720Z,30.97
2018-09-19T15:38:14.081Z,30.93